Estevan Point, Canada
Current Conditions -  °F | °C
As of 2:03 PM on Tuesday 21 Oct 2014 (Local Time) from CYAZ Reporting Station
Thunderstorm Thunderstorm  
Wind Chill: 13°   Ceiling: 1500
Heat Index: 13°   Visibility: 2mi
Dew Point: 12°   Wind: 6mph
Humidity: 94%   Direction: 180°S
Pressure: 29.7"   Gusts: NA
Location:  49.38°N, 126.54°W
Report Text: CYAZ 212103Z 18005KT 2SM -TSRA BR FEW008 BKN015 BKN018TCU OVC130 13/12 A2970 RMK SF2CF3TCU2AS1 TS DIST S WND ESTD SLP059 DENSITY ALT 100FT
Loading
Personal Weather Stations






























Interactive Weather Map
Tropical Storm Tracking
New forecast layout! Learn more

10-Day Weather Forecast

Advertisements
Track Severe Weather on mobile